createdAt,value
2019-06-08T00:02:25.230Z,5.83
2019-06-08T00:04:55.741Z,6.10
2019-06-08T00:07:26.072Z,5.62
2019-06-08T00:09:56.331Z,5.58
2019-06-08T00:12:26.654Z,5.40
2019-06-08T00:14:56.692Z,5.00
2019-06-08T00:17:37.687Z,4.90
2019-06-08T00:19:58.848Z,5.10
2019-06-08T00:22:29.175Z,4.70
2019-06-08T00:24:59.665Z,4.62
2019-06-08T00:27:30.166Z,4.87
2019-06-08T00:30:00.679Z,4.80
2019-06-08T00:32:31.039Z,4.80
2019-06-08T00:35:01.266Z,4.45
2019-06-08T00:37:31.430Z,4.30
2019-06-08T00:40:01.854Z,4.63
2019-06-08T00:42:31.995Z,5.55
2019-06-08T00:45:02.318Z,5.33
2019-06-08T00:47:46.929Z,4.80
2019-06-08T00:50:05.609Z,4.62
2019-06-08T00:52:36.034Z,4.47
2019-06-08T00:55:07.502Z,4.37
2019-06-08T00:57:37.880Z,4.25
2019-06-08T01:00:11.174Z,4.87
2019-06-08T01:02:41.762Z,5.80
2019-06-08T01:05:12.333Z,5.33
2019-06-08T01:07:42.766Z,4.80
2019-06-08T01:10:15.216Z,4.90
2019-06-08T01:12:46.744Z,4.60
2019-06-08T01:15:23.869Z,4.70
2019-06-08T01:18:02.121Z,4.72
2019-06-08T01:20:23.519Z,4.60
2019-06-08T01:22:53.954Z,4.35
2019-06-08T01:25:24.242Z,4.58
2019-06-08T01:27:54.460Z,4.20
2019-06-08T01:30:26.297Z,3.40
2019-06-08T01:32:56.620Z,3.75
2019-06-08T01:35:27.280Z,3.95
2019-06-08T01:37:57.476Z,3.50
2019-06-08T01:40:27.646Z,3.20
2019-06-08T01:42:57.989Z,3.67
2019-06-08T01:45:30.281Z,3.12
2019-06-08T01:48:15.987Z,2.90
2019-06-08T01:50:34.012Z,3.00
2019-06-08T01:53:04.327Z,3.00
2019-06-08T01:55:34.961Z,2.65
2019-06-08T01:58:05.223Z,2.60
2019-06-08T02:00:40.929Z,2.60
2019-06-08T02:03:07.418Z,3.10
2019-06-08T02:05:37.782Z,5.87
2019-06-08T02:08:08.264Z,2.60
2019-06-08T02:10:38.451Z,2.75
2019-06-08T02:13:09.201Z,2.62
2019-06-08T02:15:39.661Z,3.40
2019-06-08T02:18:10.259Z,3.30
2019-06-08T02:20:40.687Z,2.43
2019-06-08T02:23:10.943Z,2.60
2019-06-08T02:25:41.259Z,2.23
2019-06-08T02:28:11.570Z,2.50
2019-06-08T02:30:42.129Z,2.30
2019-06-08T02:33:12.284Z,2.50
2019-06-08T02:35:42.770Z,2.30
2019-06-08T02:38:13.353Z,2.40
2019-06-08T02:40:43.930Z,2.40
2019-06-08T02:43:14.344Z,2.60
2019-06-08T02:45:45.151Z,2.17
2019-06-08T02:48:15.637Z,2.60
2019-06-08T02:50:48.706Z,2.37
2019-06-08T02:53:20.065Z,2.47
2019-06-08T02:55:51.272Z,2.10
2019-06-08T02:58:21.941Z,2.40
2019-06-08T03:00:52.562Z,2.33
2019-06-08T03:03:22.901Z,2.40
2019-06-08T03:05:53.612Z,2.50
2019-06-08T03:08:23.937Z,2.62
2019-06-08T03:10:54.183Z,2.50
2019-06-08T03:13:25.142Z,1.98
2019-06-08T03:15:55.415Z,2.50
2019-06-08T03:18:25.935Z,1.90
2019-06-08T03:20:56.126Z,2.58
2019-06-08T03:23:26.637Z,2.52
2019-06-08T03:25:56.969Z,2.40
2019-06-08T03:28:27.391Z,2.08
2019-06-08T03:31:28.684Z,1.30
2019-06-08T03:34:01.510Z,1.72
2019-06-08T03:36:34.971Z,1.80
2019-06-08T03:39:03.166Z,1.77
2019-06-08T03:41:34.425Z,2.00
2019-06-08T03:44:05.878Z,2.17
2019-06-08T03:46:36.507Z,1.95
2019-06-08T03:49:06.816Z,2.52
2019-06-08T03:51:40.270Z,3.50
2019-06-08T03:54:08.795Z,2.20
2019-06-08T03:56:40.121Z,2.40
2019-06-08T03:59:10.766Z,1.90
2019-06-08T04:01:41.614Z,2.22
2019-06-08T04:04:12.005Z,3.67
2019-06-08T04:06:43.687Z,1.80
2019-06-08T04:09:14.073Z,1.77
2019-06-08T04:11:45.013Z,1.70
2019-06-08T04:14:16.724Z,2.15
2019-06-08T04:16:47.063Z,2.20
2019-06-08T04:19:17.784Z,1.75
2019-06-08T04:21:48.086Z,2.22
2019-06-08T04:24:18.300Z,1.57
2019-06-08T04:26:50.596Z,1.70
2019-06-08T04:29:20.524Z,2.12
2019-06-08T04:36:18.807Z,1.90
2019-06-08T04:38:52.132Z,1.77
2019-06-08T04:41:22.312Z,2.08
2019-06-08T04:43:52.921Z,1.80
2019-06-08T04:46:23.380Z,2.42
2019-06-08T04:48:53.653Z,2.20
2019-06-08T04:51:23.863Z,1.90
2019-06-08T04:53:54.164Z,1.92
2019-06-08T04:56:24.467Z,3.13
2019-06-08T04:58:54.679Z,2.10
2019-06-08T05:01:25.276Z,1.87
2019-06-08T05:03:55.623Z,2.10
2019-06-08T05:06:25.964Z,8.80
2019-06-08T05:08:56.405Z,2.97
2019-06-08T05:11:26.840Z,1.80
2019-06-08T05:13:57.041Z,3.02
2019-06-08T05:16:27.453Z,2.17
2019-06-08T05:18:57.725Z,2.27
2019-06-08T05:21:27.938Z,2.87
2019-06-08T05:23:59.098Z,1.70
2019-06-08T05:26:29.499Z,1.90
2019-06-08T05:28:59.772Z,1.60
2019-06-08T05:31:30.097Z,2.13
2019-06-08T05:34:00.385Z,2.00
2019-06-08T05:36:30.655Z,3.12
2019-06-08T05:39:01.242Z,1.60
2019-06-08T05:41:31.575Z,1.60
2019-06-08T05:44:01.961Z,2.00
2019-06-08T05:46:32.354Z,1.87
2019-06-08T05:49:02.510Z,1.77
2019-06-08T05:51:32.920Z,2.00
2019-06-08T05:54:03.214Z,2.12
2019-06-08T05:56:33.526Z,2.20
2019-06-08T05:59:03.993Z,2.33
2019-06-08T06:01:34.412Z,1.50
2019-06-08T06:04:05.046Z,1.40
2019-06-08T06:06:35.337Z,2.40
2019-06-08T06:09:08.314Z,1.27
2019-06-08T06:11:38.561Z,1.50
2019-06-08T06:14:08.886Z,1.47
2019-06-08T06:16:39.188Z,1.70
2019-06-08T06:19:09.614Z,1.62
2019-06-08T06:21:40.916Z,1.40
2019-06-08T06:24:11.348Z,1.52
2019-06-08T06:26:41.646Z,1.90
2019-06-08T06:29:12.385Z,1.65
2019-06-08T06:31:43.679Z,2.98
2019-06-08T06:34:14.535Z,1.80
2019-06-08T06:36:45.829Z,2.60
2019-06-08T06:39:16.248Z,2.50
2019-06-08T06:41:46.486Z,4.37
2019-06-08T06:44:16.784Z,2.95
2019-06-08T06:46:47.982Z,1.55
2019-06-08T06:49:18.327Z,1.40
2019-06-08T06:51:48.756Z,1.90
2019-06-08T06:54:19.085Z,1.82
2019-06-08T06:56:49.429Z,1.80
2019-06-08T06:59:19.934Z,2.98
2019-06-08T07:01:55.185Z,2.15
2019-06-08T07:04:22.200Z,1.70
2019-06-08T07:06:52.362Z,2.95
2019-06-08T07:09:22.990Z,1.50
2019-06-08T07:11:53.358Z,1.80
2019-06-08T07:14:23.794Z,1.60
2019-06-08T07:16:54.163Z,1.57
2019-06-08T07:19:24.469Z,1.73
2019-06-08T07:21:55.101Z,1.52
2019-06-08T07:26:10.660Z,1.40
2019-06-08T07:28:41.020Z,2.00
2019-06-08T07:31:11.205Z,1.83
2019-06-08T07:33:41.367Z,1.82
2019-06-08T07:36:11.693Z,2.00
2019-06-08T07:40:51.973Z,3.30
2019-06-08T07:43:22.440Z,2.60
2019-06-08T07:45:52.620Z,2.10
2019-06-08T07:48:22.874Z,1.90
2019-06-08T07:50:54.238Z,1.90
2019-06-08T07:53:24.549Z,1.80
2019-06-08T07:55:56.235Z,2.90
2019-06-08T07:58:26.412Z,1.95
2019-06-08T08:01:02.626Z,1.65
2019-06-08T08:03:28.280Z,1.50
2019-06-08T08:05:58.632Z,1.82
2019-06-08T08:08:28.863Z,1.70
2019-06-08T08:10:59.157Z,1.90
2019-06-08T08:14:14.581Z,12.10
2019-06-08T08:16:45.003Z,4.87
2019-06-08T08:19:15.106Z,2.87
2019-06-08T08:21:45.324Z,1.70
2019-06-08T08:24:17.262Z,3.07
2019-06-08T08:26:49.574Z,3.20
2019-06-08T08:29:19.495Z,2.20
2019-06-08T08:31:51.592Z,2.30
2019-06-08T08:34:21.331Z,2.33
2019-06-08T08:36:52.184Z,1.82
2019-06-08T08:39:22.872Z,2.00
2019-06-08T08:41:56.843Z,2.05
2019-06-08T08:44:24.853Z,2.20
2019-06-08T08:46:56.214Z,2.33
2019-06-08T08:49:28.076Z,2.10
2019-06-08T08:52:00.067Z,2.00
2019-06-08T08:54:30.144Z,1.92
2019-06-08T08:57:03.416Z,1.90
2019-06-08T08:59:31.965Z,2.17
2019-06-08T09:02:03.077Z,1.80
2019-06-08T09:04:33.627Z,1.92
2019-06-08T09:07:07.809Z,2.07
2019-06-08T09:09:35.586Z,2.08
2019-06-08T09:12:08.334Z,1.70
2019-06-08T09:14:38.715Z,1.83
2019-06-08T09:17:09.687Z,1.90
2019-06-08T09:19:40.009Z,2.00
2019-06-08T09:22:10.303Z,2.50
2019-06-08T09:24:40.900Z,1.80
2019-06-08T09:27:11.060Z,1.90
2019-06-08T09:29:41.351Z,2.15
2019-06-08T09:32:11.579Z,2.95
2019-06-08T09:34:42.008Z,2.00
2019-06-08T09:37:12.421Z,3.83
2019-06-08T09:39:42.735Z,2.20
2019-06-08T09:42:13.169Z,2.12
2019-06-08T09:44:43.692Z,2.22
2019-06-08T09:47:14.060Z,2.10
2019-06-08T09:49:44.459Z,2.40
2019-06-08T09:52:15.030Z,2.10
2019-06-08T09:54:47.997Z,2.97
2019-06-08T09:59:43.170Z,2.90
2019-06-08T10:02:13.863Z,2.50
2019-06-08T10:04:44.145Z,5.10
2019-06-08T10:07:14.262Z,5.03
2019-06-08T10:09:44.602Z,3.80
2019-06-08T10:12:15.033Z,3.22
2019-06-08T10:14:45.426Z,2.65
2019-06-08T10:17:20.560Z,2.70
2019-06-08T10:19:47.943Z,3.00
2019-06-08T10:22:18.342Z,3.08
2019-06-08T10:24:49.024Z,2.35
2019-06-08T10:27:19.903Z,2.50
2019-06-08T10:29:50.727Z,4.80
2019-06-08T10:32:22.593Z,2.58
2019-06-08T10:34:53.145Z,3.00
2019-06-08T10:37:23.053Z,2.70
2019-06-08T10:39:53.351Z,2.90
2019-06-08T10:42:23.614Z,3.10
2019-06-08T10:44:54.035Z,3.42
2019-06-08T10:47:24.357Z,3.98
2019-06-08T10:49:54.648Z,3.67
2019-06-08T10:52:25.093Z,4.20
2019-06-08T10:54:57.502Z,3.70
2019-06-08T10:57:28.026Z,4.00
2019-06-08T10:59:59.798Z,5.25
2019-06-08T11:02:30.388Z,5.20
2019-06-08T11:05:04.539Z,4.05
2019-06-08T11:07:32.759Z,4.08
2019-06-08T11:10:03.915Z,3.20
2019-06-08T11:12:37.545Z,3.52
2019-06-08T11:15:09.626Z,3.25
2019-06-08T11:17:39.323Z,3.25
2019-06-08T11:20:11.910Z,3.10
2019-06-08T11:22:41.451Z,3.30
2019-06-08T11:25:16.292Z,2.73
2019-06-08T11:27:43.655Z,2.72
2019-06-08T11:30:20.817Z,3.05
2019-06-08T11:32:47.921Z,2.85
2019-06-08T11:35:17.859Z,3.53
2019-06-08T11:37:48.874Z,3.00
2019-06-08T11:40:20.861Z,3.10
2019-06-08T11:42:50.763Z,3.10
2019-06-08T11:45:21.487Z,3.50
2019-06-08T11:47:51.703Z,3.00
2019-06-08T11:50:24.473Z,3.65
2019-06-08T11:52:54.956Z,3.58
2019-06-08T11:55:25.144Z,4.40
2019-06-08T11:57:58.501Z,4.10
2019-06-08T12:00:31.081Z,4.30
2019-06-08T12:03:02.245Z,4.83
2019-06-08T12:05:32.432Z,4.73
2019-06-08T12:08:02.821Z,4.83
2019-06-08T12:10:33.450Z,4.70
2019-06-08T12:13:04.639Z,4.60
2019-06-08T12:15:35.032Z,4.17
2019-06-08T12:18:08.014Z,4.78
2019-06-08T12:20:37.698Z,7.03
2019-06-08T12:23:08.350Z,7.80
2019-06-08T12:25:38.661Z,8.33
2019-06-08T12:28:09.008Z,9.93
2019-06-08T12:30:39.323Z,11.70
2019-06-08T12:33:11.243Z,13.00
2019-06-08T12:35:41.531Z,13.98
2019-06-08T12:38:13.044Z,13.28
2019-06-08T12:40:43.641Z,12.55
2019-06-08T12:43:59.994Z,11.27
2019-06-08T12:46:30.679Z,11.40
2019-06-08T12:49:00.869Z,10.68
2019-06-08T12:51:31.043Z,9.60
2019-06-08T12:54:01.254Z,8.90
2019-06-08T12:56:31.901Z,8.23
2019-06-08T12:59:02.405Z,8.15
2019-06-08T13:01:32.640Z,7.67
2019-06-08T13:04:02.947Z,7.47
2019-06-08T13:06:33.167Z,6.23
2019-06-08T13:09:03.428Z,6.05
2019-06-08T13:11:34.153Z,5.93
2019-06-08T13:14:04.426Z,11.83
2019-06-08T13:16:34.757Z,14.10
2019-06-08T13:19:05.243Z,11.12
2019-06-08T13:21:38.310Z,10.17
2019-06-08T13:24:08.719Z,9.33
2019-06-08T13:26:39.180Z,6.92
2019-06-08T13:29:10.642Z,7.45
2019-06-08T13:31:41.415Z,6.10
2019-06-08T13:34:14.280Z,6.33
2019-06-08T13:36:43.272Z,5.92
2019-06-08T13:39:14.858Z,6.60
2019-06-08T13:41:45.261Z,6.17
2019-06-08T13:44:15.657Z,5.50
2019-06-08T13:46:47.819Z,5.08
2019-06-08T13:49:23.026Z,6.10
2019-06-08T13:51:50.768Z,6.00
2019-06-08T13:54:22.611Z,5.78
2019-06-08T13:56:52.703Z,5.75
2019-06-08T13:59:27.315Z,8.23
2019-06-08T14:01:54.596Z,8.33
2019-06-08T14:04:25.309Z,6.47
2019-06-08T14:06:57.747Z,5.58
2019-06-08T14:09:31.344Z,5.40
2019-06-08T14:12:00.009Z,4.67
2019-06-08T14:14:33.516Z,4.55
2019-06-08T14:17:02.134Z,4.92
2019-06-08T14:19:32.493Z,4.67
2019-06-08T14:22:02.829Z,6.45
2019-06-08T14:24:34.778Z,7.15
2019-06-08T14:27:04.987Z,8.23
2019-06-08T14:29:35.338Z,8.20
2019-06-08T14:32:07.702Z,8.05
2019-06-08T14:34:38.663Z,7.28
2019-06-08T14:37:08.971Z,5.85
2019-06-08T14:39:39.413Z,6.58
2019-06-08T14:42:09.771Z,10.50
2019-06-08T14:44:40.554Z,13.65
2019-06-08T14:47:12.238Z,13.90
2019-06-08T14:49:43.523Z,11.50
2019-06-08T14:52:14.019Z,10.78
2019-06-08T14:54:44.415Z,9.33
2019-06-08T14:57:14.743Z,8.77
2019-06-08T14:59:45.039Z,8.33
2019-06-08T15:02:17.633Z,6.43
2019-06-08T15:04:48.439Z,6.75
2019-06-08T15:07:21.945Z,6.10
2019-06-08T15:09:50.284Z,6.10
2019-06-08T15:12:21.440Z,5.50
2019-06-08T15:14:51.577Z,5.10
2019-06-08T15:17:21.899Z,5.08
2019-06-08T15:19:52.580Z,4.90
2019-06-08T15:22:24.085Z,5.07
2019-06-08T15:24:54.592Z,5.03
2019-06-08T15:27:26.225Z,4.92
2019-06-08T15:29:58.574Z,4.87
2019-06-08T15:32:33.296Z,5.00
2019-06-08T15:35:00.028Z,5.25
2019-06-08T15:37:31.110Z,4.97
2019-06-08T15:40:01.883Z,5.45
2019-06-08T15:42:33.443Z,5.20
2019-06-08T15:45:03.827Z,5.62
2019-06-08T15:47:34.072Z,5.30
2019-06-08T15:50:05.493Z,5.65
2019-06-08T15:52:37.665Z,5.55
2019-06-08T15:55:11.060Z,6.00
2019-06-08T15:57:41.346Z,6.20
2019-06-08T16:00:11.795Z,7.47
2019-06-08T16:02:42.029Z,11.00
2019-06-08T16:05:12.407Z,11.38
2019-06-08T16:07:42.677Z,8.58
2019-06-08T16:10:13.357Z,6.15
2019-06-08T16:12:43.536Z,4.95
2019-06-08T16:15:14.153Z,4.10
2019-06-08T16:17:44.599Z,3.87
2019-06-08T16:20:15.227Z,3.80
2019-06-08T16:22:45.602Z,3.85
2019-06-08T16:25:16.289Z,3.95
2019-06-08T16:27:46.581Z,3.98
2019-06-08T16:30:17.201Z,4.12
2019-06-08T16:32:47.376Z,3.90
2019-06-08T16:35:17.901Z,3.90
2019-06-08T16:37:48.180Z,3.90
2019-06-08T16:40:20.762Z,3.95
2019-06-08T16:42:51.022Z,3.90
2019-06-08T16:45:21.323Z,4.20
2019-06-08T16:47:51.577Z,4.30
2019-06-08T16:50:24.865Z,4.20
2019-06-08T16:52:53.710Z,4.30
2019-06-08T16:55:23.982Z,3.90
2019-06-08T16:57:54.095Z,3.83
2019-06-08T17:00:36.525Z,3.90
2019-06-08T17:02:56.450Z,3.40
2019-06-08T17:05:26.703Z,3.40
2019-06-08T17:07:57.069Z,3.15
2019-06-08T17:10:27.220Z,3.08
2019-06-08T17:12:57.268Z,2.83
2019-06-08T17:15:27.720Z,2.95
2019-06-08T17:17:58.319Z,2.90
2019-06-08T17:20:29.992Z,2.90
2019-06-08T17:23:00.587Z,2.67
2019-06-08T17:25:30.918Z,2.60
2019-06-08T17:28:01.120Z,2.53
2019-06-08T17:30:31.413Z,2.47
2019-06-08T17:33:01.594Z,2.50
2019-06-08T17:35:31.804Z,2.42
2019-06-08T17:38:02.227Z,2.60
2019-06-08T17:40:33.846Z,2.67
2019-06-08T17:43:04.409Z,2.47
2019-06-08T17:45:36.238Z,2.40
2019-06-08T17:48:07.085Z,2.53
2019-06-08T17:50:38.642Z,2.40
2019-06-08T17:53:09.024Z,2.72
2019-06-08T17:55:39.498Z,2.70
2019-06-08T17:58:09.711Z,2.70
2019-06-08T18:00:39.990Z,2.83
2019-06-08T18:03:10.219Z,2.77
2019-06-08T18:05:42.415Z,2.58
2019-06-08T18:08:12.358Z,2.58
2019-06-08T18:10:42.882Z,2.83
2019-06-08T18:13:13.113Z,2.90
2019-06-08T18:15:44.858Z,2.90
2019-06-08T18:18:17.508Z,3.20
2019-06-08T18:20:48.423Z,3.55
2019-06-08T18:23:18.768Z,3.50
2019-06-08T18:25:49.396Z,3.08
2019-06-08T18:28:19.877Z,3.35
2019-06-08T18:30:50.299Z,3.15
2019-06-08T18:33:20.937Z,2.93
2019-06-08T18:35:51.064Z,2.33
2019-06-08T18:38:21.721Z,2.17
2019-06-08T18:40:51.942Z,2.10
2019-06-08T18:43:23.702Z,1.90
2019-06-08T18:45:54.310Z,2.00
2019-06-08T18:48:24.549Z,2.00
2019-06-08T18:50:57.084Z,1.80
2019-06-08T18:53:27.170Z,1.90
2019-06-08T18:55:58.169Z,2.07
2019-06-08T18:58:28.461Z,2.10
2019-06-08T19:00:58.778Z,2.02
2019-06-08T19:03:28.845Z,2.08
2019-06-08T19:05:59.524Z,2.12
2019-06-08T19:08:29.857Z,2.15
2019-06-08T19:11:00.047Z,2.30
2019-06-08T19:13:30.680Z,2.05
2019-06-08T19:16:00.840Z,2.15
2019-06-08T19:18:31.134Z,2.10
2019-06-08T19:21:01.494Z,2.12
2019-06-08T19:23:31.688Z,2.40
2019-06-08T19:26:01.880Z,2.00
2019-06-08T19:28:36.110Z,2.20
2019-06-08T19:31:03.693Z,2.22
2019-06-08T19:33:33.972Z,2.27
2019-06-08T19:36:04.151Z,2.25
2019-06-08T19:38:34.474Z,2.22
2019-06-08T19:41:04.634Z,2.20
2019-06-08T19:43:34.915Z,2.22
2019-06-08T19:46:07.096Z,2.12
2019-06-08T19:48:39.300Z,2.53
2019-06-08T19:51:08.316Z,2.50
2019-06-08T19:53:44.449Z,2.37
2019-06-08T19:56:10.284Z,2.50
2019-06-08T19:58:52.387Z,2.40
2019-06-08T20:01:11.896Z,2.65
2019-06-08T20:03:42.982Z,2.73
2019-06-08T20:06:14.366Z,2.47
2019-06-08T20:08:45.100Z,2.50
2019-06-08T20:11:17.191Z,2.03
2019-06-08T20:13:49.963Z,2.40
2019-06-08T20:16:19.027Z,2.20
2019-06-08T20:18:51.260Z,2.08
2019-06-08T20:21:20.654Z,2.27
2019-06-08T20:23:51.021Z,2.00
2019-06-08T20:26:21.306Z,2.08
2019-06-08T20:28:57.703Z,1.90
2019-06-08T20:31:23.248Z,2.30
2019-06-08T20:33:53.843Z,2.15
2019-06-08T20:36:24.181Z,2.00
2019-06-08T20:38:54.450Z,2.20
2019-06-08T20:41:25.032Z,2.10
2019-06-08T20:43:57.789Z,2.27
2019-06-08T20:46:28.622Z,2.05
2019-06-08T20:48:59.103Z,2.20
2019-06-08T20:51:29.326Z,1.93
2019-06-08T20:53:59.631Z,2.45
2019-06-08T20:56:29.913Z,2.20
2019-06-08T20:59:00.259Z,2.30
2019-06-08T21:01:30.554Z,1.98
2019-06-08T21:04:00.865Z,2.10
2019-06-08T21:06:31.212Z,2.25
2019-06-08T21:09:01.470Z,2.10
2019-06-08T21:11:31.955Z,2.10
2019-06-08T21:14:02.352Z,2.27
2019-06-08T21:16:32.648Z,2.30
2019-06-08T21:19:02.945Z,2.20
2019-06-08T21:21:33.213Z,2.60
2019-06-08T21:24:03.706Z,2.40
2019-06-08T21:26:33.913Z,2.35
2019-06-08T21:29:04.304Z,2.40
2019-06-08T21:31:34.486Z,2.40
2019-06-08T21:34:07.269Z,2.77
2019-06-08T21:36:37.589Z,2.77
2019-06-08T21:39:09.073Z,2.80
2019-06-08T21:41:39.535Z,2.80
2019-06-08T21:44:09.953Z,2.60
2019-06-08T21:46:40.344Z,2.60
2019-06-08T21:49:10.727Z,2.85
2019-06-08T21:51:40.962Z,2.63
2019-06-08T21:54:11.249Z,2.87
2019-06-08T21:56:41.468Z,2.70
2019-06-08T21:59:11.883Z,2.60
2019-06-08T22:01:43.376Z,2.80
2019-06-08T22:04:13.581Z,2.70
2019-06-08T22:06:43.951Z,2.70
2019-06-08T22:09:14.449Z,2.67
2019-06-08T22:11:47.008Z,2.60
2019-06-08T22:14:16.484Z,2.77
2019-06-08T22:16:47.583Z,2.70
2019-06-08T22:19:18.415Z,2.87
2019-06-08T22:21:49.092Z,2.60
2019-06-08T22:24:19.581Z,2.50
2019-06-08T22:26:51.008Z,2.62
2019-06-08T22:29:21.719Z,2.87
2019-06-08T22:31:52.726Z,2.85
2019-06-08T22:34:23.607Z,2.70
2019-06-08T22:36:54.208Z,2.63
2019-06-08T22:39:24.656Z,2.47
2019-06-08T22:41:56.050Z,2.58
2019-06-08T22:44:28.432Z,3.30
2019-06-08T22:47:00.186Z,2.65
2019-06-08T22:49:29.789Z,2.85
2019-06-08T22:52:02.309Z,2.70
2019-06-08T22:54:31.802Z,2.30
2019-06-08T22:57:03.213Z,2.22
2019-06-08T22:59:33.684Z,2.50
2019-06-08T23:02:05.774Z,2.73
2019-06-08T23:04:35.813Z,2.45
2019-06-08T23:07:09.284Z,2.80
2019-06-08T23:09:38.001Z,2.50
2019-06-08T23:12:09.494Z,2.60
2019-06-08T23:14:40.000Z,2.40
2019-06-08T23:17:10.418Z,2.60
2019-06-08T23:19:40.585Z,2.52
2019-06-08T23:22:10.884Z,2.80
2019-06-08T23:24:41.059Z,2.70
2019-06-08T23:27:11.254Z,2.70
2019-06-08T23:29:41.626Z,2.50
2019-06-08T23:32:12.071Z,2.65
2019-06-08T23:34:42.147Z,2.53
2019-06-08T23:37:13.087Z,2.70
2019-06-08T23:39:43.789Z,2.62
2019-06-08T23:42:14.387Z,2.92
2019-06-08T23:44:47.041Z,2.90
2019-06-08T23:47:17.926Z,2.75
2019-06-08T23:49:47.944Z,2.60
2019-06-08T23:52:18.435Z,2.87
2019-06-08T23:54:48.951Z,2.80
2019-06-08T23:57:19.475Z,2.60
2019-06-08T23:59:49.646Z,2.60
